sensor_id;sensor_type;location;lat;lon;timestamp;P1;durP1;ratioP1;P2;durP2;ratioP2
18296;SDS011;18066;52.106;5.534;2023-02-22T00:01:10;25.00;;;14.30;;
18296;SDS011;18066;52.106;5.534;2023-02-22T00:03:59;25.53;;;14.33;;
18296;SDS011;18066;52.106;5.534;2023-02-22T00:06:27;25.33;;;14.63;;
18296;SDS011;18066;52.106;5.534;2023-02-22T00:08:55;24.63;;;14.20;;
18296;SDS011;18066;52.106;5.534;2023-02-22T00:11:22;21.93;;;13.90;;
18296;SDS011;18066;52.106;5.534;2023-02-22T00:13:49;23.73;;;14.23;;
18296;SDS011;18066;52.106;5.534;2023-02-22T00:16:17;25.10;;;14.37;;
18296;SDS011;18066;52.106;5.534;2023-02-22T00:18:46;25.90;;;14.60;;
18296;SDS011;18066;52.106;5.534;2023-02-22T00:21:14;25.23;;;14.40;;
18296;SDS011;18066;52.106;5.534;2023-02-22T00:23:43;24.03;;;14.23;;
18296;SDS011;18066;52.106;5.534;2023-02-22T00:26:12;25.37;;;14.57;;
18296;SDS011;18066;52.106;5.534;2023-02-22T00:28:42;26.20;;;13.67;;
18296;SDS011;18066;52.106;5.534;2023-02-22T00:31:09;26.43;;;14.87;;
18296;SDS011;18066;52.106;5.534;2023-02-22T00:33:37;24.47;;;13.23;;
18296;SDS011;18066;52.106;5.534;2023-02-22T00:36:04;23.53;;;12.97;;
18296;SDS011;18066;52.106;5.534;2023-02-22T00:38:32;22.00;;;13.03;;
18296;SDS011;18066;52.106;5.534;2023-02-22T00:41:03;21.73;;;11.93;;
18296;SDS011;18066;52.106;5.534;2023-02-22T00:43:30;20.83;;;12.60;;
18296;SDS011;18066;52.106;5.534;2023-02-22T00:45:56;24.80;;;13.23;;
18296;SDS011;18066;52.106;5.534;2023-02-22T00:48:23;23.23;;;13.37;;
18296;SDS011;18066;52.106;5.534;2023-02-22T00:50:50;21.70;;;13.23;;
18296;SDS011;18066;52.106;5.534;2023-02-22T00:53:19;21.90;;;12.90;;
18296;SDS011;18066;52.106;5.534;2023-02-22T00:55:46;22.43;;;12.30;;
18296;SDS011;18066;52.106;5.534;2023-02-22T00:58:14;22.57;;;12.67;;
18296;SDS011;18066;52.106;5.534;2023-02-22T01:00:42;20.50;;;12.27;;
18296;SDS011;18066;52.106;5.534;2023-02-22T01:03:10;23.63;;;13.33;;
18296;SDS011;18066;52.106;5.534;2023-02-22T01:05:38;22.13;;;13.40;;
18296;SDS011;18066;52.106;5.534;2023-02-22T01:08:06;21.97;;;12.90;;
18296;SDS011;18066;52.106;5.534;2023-02-22T01:10:34;22.83;;;12.20;;
18296;SDS011;18066;52.106;5.534;2023-02-22T01:13:02;18.73;;;11.90;;
18296;SDS011;18066;52.106;5.534;2023-02-22T01:15:34;24.67;;;13.17;;
18296;SDS011;18066;52.106;5.534;2023-02-22T01:18:02;19.87;;;12.23;;
18296;SDS011;18066;52.106;5.534;2023-02-22T01:20:30;23.90;;;13.37;;
18296;SDS011;18066;52.106;5.534;2023-02-22T01:22:58;25.73;;;14.37;;
18296;SDS011;18066;52.106;5.534;2023-02-22T01:25:28;24.00;;;13.87;;
18296;SDS011;18066;52.106;5.534;2023-02-22T01:27:56;22.87;;;12.97;;
18296;SDS011;18066;52.106;5.534;2023-02-22T01:30:24;23.33;;;13.87;;
18296;SDS011;18066;52.106;5.534;2023-02-22T01:32:54;25.43;;;14.07;;
18296;SDS011;18066;52.106;5.534;2023-02-22T01:35:22;25.77;;;14.87;;
18296;SDS011;18066;52.106;5.534;2023-02-22T01:37:51;26.73;;;14.27;;
18296;SDS011;18066;52.106;5.534;2023-02-22T01:40:19;28.73;;;15.33;;
18296;SDS011;18066;52.106;5.534;2023-02-22T01:42:50;25.63;;;15.53;;
18296;SDS011;18066;52.106;5.534;2023-02-22T01:45:39;27.17;;;15.70;;
18296;SDS011;18066;52.106;5.534;2023-02-22T01:48:12;27.17;;;14.60;;
18296;SDS011;18066;52.106;5.534;2023-02-22T01:50:44;26.83;;;15.00;;
18296;SDS011;18066;52.106;5.534;2023-02-22T01:53:18;26.97;;;15.50;;
18296;SDS011;18066;52.106;5.534;2023-02-22T01:55:46;30.53;;;15.10;;
18296;SDS011;18066;52.106;5.534;2023-02-22T01:58:14;24.53;;;14.03;;
18296;SDS011;18066;52.106;5.534;2023-02-22T02:00:43;26.53;;;15.80;;
18296;SDS011;18066;52.106;5.534;2023-02-22T02:03:13;24.77;;;14.23;;
18296;SDS011;18066;52.106;5.534;2023-02-22T02:05:45;29.10;;;15.97;;
18296;SDS011;18066;52.106;5.534;2023-02-22T02:08:15;27.13;;;14.77;;
18296;SDS011;18066;52.106;5.534;2023-02-22T02:10:49;27.67;;;16.47;;
18296;SDS011;18066;52.106;5.534;2023-02-22T02:13:18;26.57;;;15.60;;
18296;SDS011;18066;52.106;5.534;2023-02-22T02:15:45;29.57;;;16.03;;
18296;SDS011;18066;52.106;5.534;2023-02-22T02:18:15;28.37;;;15.97;;
18296;SDS011;18066;52.106;5.534;2023-02-22T02:20:44;25.77;;;15.37;;
18296;SDS011;18066;52.106;5.534;2023-02-22T02:23:26;31.33;;;16.70;;
18296;SDS011;18066;52.106;5.534;2023-02-22T02:26:22;27.77;;;15.43;;
18296;SDS011;18066;52.106;5.534;2023-02-22T02:29:10;26.83;;;15.73;;
18296;SDS011;18066;52.106;5.534;2023-02-22T02:32:06;30.00;;;16.77;;
18296;SDS011;18066;52.106;5.534;2023-02-22T02:34:48;26.90;;;15.00;;
18296;SDS011;18066;52.106;5.534;2023-02-22T02:37:20;28.93;;;16.77;;
18296;SDS011;18066;52.106;5.534;2023-02-22T02:39:55;28.07;;;16.47;;
18296;SDS011;18066;52.106;5.534;2023-02-22T02:42:37;29.60;;;17.40;;
18296;SDS011;18066;52.106;5.534;2023-02-22T02:45:08;31.23;;;17.37;;
18296;SDS011;18066;52.106;5.534;2023-02-22T02:47:40;30.23;;;17.27;;
18296;SDS011;18066;52.106;5.534;2023-02-22T02:50:13;28.63;;;16.70;;
18296;SDS011;18066;52.106;5.534;2023-02-22T02:52:45;30.83;;;17.77;;
18296;SDS011;18066;52.106;5.534;2023-02-22T02:55:14;30.67;;;16.87;;
18296;SDS011;18066;52.106;5.534;2023-02-22T02:57:43;30.87;;;17.30;;
18296;SDS011;18066;52.106;5.534;2023-02-22T03:00:10;35.83;;;18.73;;
18296;SDS011;18066;52.106;5.534;2023-02-22T03:02:50;31.53;;;17.53;;
18296;SDS011;18066;52.106;5.534;2023-02-22T03:05:34;30.70;;;17.80;;
18296;SDS011;18066;52.106;5.534;2023-02-22T03:08:13;32.33;;;18.37;;
18296;SDS011;18066;52.106;5.534;2023-02-22T03:10:46;30.00;;;17.13;;
18296;SDS011;18066;52.106;5.534;2023-02-22T03:13:23;35.77;;;18.90;;
18296;SDS011;18066;52.106;5.534;2023-02-22T03:15:58;34.07;;;17.90;;
18296;SDS011;18066;52.106;5.534;2023-02-22T03:18:39;32.27;;;17.60;;
18296;SDS011;18066;52.106;5.534;2023-02-22T03:21:13;33.93;;;18.30;;
18296;SDS011;18066;52.106;5.534;2023-02-22T03:23:49;33.17;;;18.23;;
18296;SDS011;18066;52.106;5.534;2023-02-22T03:26:24;30.97;;;17.77;;
18296;SDS011;18066;52.106;5.534;2023-02-22T03:28:58;33.57;;;18.97;;
18296;SDS011;18066;52.106;5.534;2023-02-22T03:31:29;33.27;;;18.17;;
18296;SDS011;18066;52.106;5.534;2023-02-22T03:34:03;32.87;;;18.77;;
18296;SDS011;18066;52.106;5.534;2023-02-22T03:36:33;34.80;;;19.30;;
18296;SDS011;18066;52.106;5.534;2023-02-22T03:39:04;36.63;;;19.20;;
18296;SDS011;18066;52.106;5.534;2023-02-22T03:41:36;34.50;;;18.83;;
18296;SDS011;18066;52.106;5.534;2023-02-22T03:44:05;37.63;;;19.37;;
18296;SDS011;18066;52.106;5.534;2023-02-22T03:46:36;39.87;;;19.90;;
18296;SDS011;18066;52.106;5.534;2023-02-22T03:49:08;39.77;;;20.73;;
18296;SDS011;18066;52.106;5.534;2023-02-22T03:51:37;34.00;;;18.73;;
18296;SDS011;18066;52.106;5.534;2023-02-22T03:54:04;34.63;;;20.13;;
18296;SDS011;18066;52.106;5.534;2023-02-22T03:56:34;38.97;;;19.13;;
18296;SDS011;18066;52.106;5.534;2023-02-22T03:59:11;36.40;;;18.93;;
18296;SDS011;18066;52.106;5.534;2023-02-22T04:01:38;38.97;;;20.70;;
18296;SDS011;18066;52.106;5.534;2023-02-22T04:04:06;36.90;;;18.73;;
18296;SDS011;18066;52.106;5.534;2023-02-22T04:06:33;36.33;;;18.70;;
18296;SDS011;18066;52.106;5.534;2023-02-22T04:09:00;35.33;;;18.90;;
18296;SDS011;18066;52.106;5.534;2023-02-22T04:11:27;37.90;;;18.77;;
18296;SDS011;18066;52.106;5.534;2023-02-22T04:13:53;40.03;;;18.93;;
18296;SDS011;18066;52.106;5.534;2023-02-22T04:16:21;38.60;;;19.67;;
18296;SDS011;18066;52.106;5.534;2023-02-22T04:18:47;41.37;;;19.43;;
18296;SDS011;18066;52.106;5.534;2023-02-22T04:21:15;46.53;;;19.33;;
18296;SDS011;18066;52.106;5.534;2023-02-22T04:23:42;36.53;;;19.57;;
18296;SDS011;18066;52.106;5.534;2023-02-22T04:26:10;42.40;;;19.00;;
18296;SDS011;18066;52.106;5.534;2023-02-22T04:28:37;38.43;;;19.57;;
18296;SDS011;18066;52.106;5.534;2023-02-22T04:31:04;39.10;;;19.03;;
18296;SDS011;18066;52.106;5.534;2023-02-22T04:33:31;40.57;;;19.83;;
18296;SDS011;18066;52.106;5.534;2023-02-22T04:35:57;38.73;;;19.23;;
18296;SDS011;18066;52.106;5.534;2023-02-22T04:38:25;39.73;;;18.93;;
18296;SDS011;18066;52.106;5.534;2023-02-22T04:40:52;37.47;;;18.33;;
18296;SDS011;18066;52.106;5.534;2023-02-22T04:43:20;43.33;;;20.40;;
18296;SDS011;18066;52.106;5.534;2023-02-22T04:45:47;40.33;;;20.50;;
18296;SDS011;18066;52.106;5.534;2023-02-22T04:48:14;48.57;;;21.10;;
18296;SDS011;18066;52.106;5.534;2023-02-22T04:50:40;41.67;;;19.83;;
18296;SDS011;18066;52.106;5.534;2023-02-22T04:53:07;43.63;;;21.50;;
18296;SDS011;18066;52.106;5.534;2023-02-22T04:55:35;45.53;;;21.73;;
18296;SDS011;18066;52.106;5.534;2023-02-22T04:58:02;42.93;;;21.87;;
18296;SDS011;18066;52.106;5.534;2023-02-22T05:00:29;47.37;;;20.73;;
18296;SDS011;18066;52.106;5.534;2023-02-22T05:02:56;42.57;;;19.90;;
18296;SDS011;18066;52.106;5.534;2023-02-22T05:05:22;41.20;;;19.80;;
18296;SDS011;18066;52.106;5.534;2023-02-22T05:07:49;46.13;;;20.60;;
18296;SDS011;18066;52.106;5.534;2023-02-22T05:10:16;41.40;;;20.13;;
18296;SDS011;18066;52.106;5.534;2023-02-22T05:12:45;45.20;;;21.80;;
18296;SDS011;18066;52.106;5.534;2023-02-22T05:15:14;44.00;;;20.43;;
18296;SDS011;18066;52.106;5.534;2023-02-22T05:17:42;47.67;;;21.53;;
18296;SDS011;18066;52.106;5.534;2023-02-22T05:20:10;46.10;;;21.37;;
18296;SDS011;18066;52.106;5.534;2023-02-22T05:22:46;46.17;;;20.63;;
18296;SDS011;18066;52.106;5.534;2023-02-22T05:25:13;47.20;;;22.90;;
18296;SDS011;18066;52.106;5.534;2023-02-22T05:27:40;44.37;;;21.17;;
18296;SDS011;18066;52.106;5.534;2023-02-22T05:30:09;45.23;;;20.10;;
18296;SDS011;18066;52.106;5.534;2023-02-22T05:32:37;42.13;;;19.33;;
18296;SDS011;18066;52.106;5.534;2023-02-22T05:35:03;42.87;;;20.00;;
18296;SDS011;18066;52.106;5.534;2023-02-22T05:37:32;47.10;;;21.17;;
18296;SDS011;18066;52.106;5.534;2023-02-22T05:39:59;41.07;;;19.40;;
18296;SDS011;18066;52.106;5.534;2023-02-22T05:42:26;44.90;;;19.50;;
18296;SDS011;18066;52.106;5.534;2023-02-22T05:44:53;47.40;;;20.37;;
18296;SDS011;18066;52.106;5.534;2023-02-22T05:47:21;47.07;;;19.80;;
18296;SDS011;18066;52.106;5.534;2023-02-22T05:49:48;42.60;;;20.27;;
18296;SDS011;18066;52.106;5.534;2023-02-22T05:52:15;49.70;;;20.90;;
18296;SDS011;18066;52.106;5.534;2023-02-22T05:54:41;48.40;;;20.77;;
18296;SDS011;18066;52.106;5.534;2023-02-22T05:57:08;44.60;;;20.40;;
18296;SDS011;18066;52.106;5.534;2023-02-22T05:59:35;43.57;;;19.50;;
18296;SDS011;18066;52.106;5.534;2023-02-22T06:02:02;48.57;;;19.73;;
18296;SDS011;18066;52.106;5.534;2023-02-22T06:04:30;52.07;;;21.57;;
18296;SDS011;18066;52.106;5.534;2023-02-22T06:06:57;44.97;;;20.20;;
18296;SDS011;18066;52.106;5.534;2023-02-22T06:09:23;47.63;;;20.17;;
18296;SDS011;18066;52.106;5.534;2023-02-22T06:11:50;44.40;;;19.70;;
18296;SDS011;18066;52.106;5.534;2023-02-22T06:14:17;48.40;;;20.97;;
18296;SDS011;18066;52.106;5.534;2023-02-22T06:16:47;45.10;;;20.47;;
18296;SDS011;18066;52.106;5.534;2023-02-22T06:19:17;45.33;;;19.97;;
18296;SDS011;18066;52.106;5.534;2023-02-22T06:21:48;44.43;;;20.63;;
18296;SDS011;18066;52.106;5.534;2023-02-22T06:24:15;48.50;;;21.53;;
18296;SDS011;18066;52.106;5.534;2023-02-22T06:26:42;48.37;;;21.17;;
18296;SDS011;18066;52.106;5.534;2023-02-22T06:29:09;50.80;;;22.63;;
18296;SDS011;18066;52.106;5.534;2023-02-22T06:31:36;48.73;;;21.57;;
18296;SDS011;18066;52.106;5.534;2023-02-22T06:34:03;46.33;;;21.23;;
18296;SDS011;18066;52.106;5.534;2023-02-22T06:36:30;42.23;;;19.10;;
18296;SDS011;18066;52.106;5.534;2023-02-22T06:38:58;47.27;;;20.57;;
18296;SDS011;18066;52.106;5.534;2023-02-22T06:41:25;51.60;;;21.60;;
18296;SDS011;18066;52.106;5.534;2023-02-22T06:43:52;51.77;;;21.30;;
18296;SDS011;18066;52.106;5.534;2023-02-22T06:46:18;54.93;;;22.43;;
18296;SDS011;18066;52.106;5.534;2023-02-22T06:48:45;46.23;;;21.93;;
18296;SDS011;18066;52.106;5.534;2023-02-22T06:51:14;52.70;;;22.37;;
18296;SDS011;18066;52.106;5.534;2023-02-22T06:53:41;45.33;;;20.33;;
18296;SDS011;18066;52.106;5.534;2023-02-22T06:56:10;48.63;;;20.97;;
18296;SDS011;18066;52.106;5.534;2023-02-22T06:58:37;53.30;;;22.03;;
18296;SDS011;18066;52.106;5.534;2023-02-22T07:01:03;52.40;;;22.60;;
18296;SDS011;18066;52.106;5.534;2023-02-22T07:03:31;57.67;;;23.87;;
18296;SDS011;18066;52.106;5.534;2023-02-22T07:05:59;47.40;;;21.83;;
18296;SDS011;18066;52.106;5.534;2023-02-22T07:08:28;49.37;;;20.93;;
18296;SDS011;18066;52.106;5.534;2023-02-22T07:10:55;42.10;;;19.87;;
18296;SDS011;18066;52.106;5.534;2023-02-22T07:13:23;41.77;;;19.53;;
18296;SDS011;18066;52.106;5.534;2023-02-22T07:15:50;45.27;;;19.33;;
18296;SDS011;18066;52.106;5.534;2023-02-22T07:18:17;44.30;;;18.83;;
18296;SDS011;18066;52.106;5.534;2023-02-22T07:20:44;42.50;;;18.90;;
18296;SDS011;18066;52.106;5.534;2023-02-22T07:23:12;46.53;;;18.87;;
18296;SDS011;18066;52.106;5.534;2023-02-22T07:25:39;44.10;;;20.70;;
18296;SDS011;18066;52.106;5.534;2023-02-22T07:28:06;47.63;;;21.77;;
18296;SDS011;18066;52.106;5.534;2023-02-22T07:30:36;48.80;;;21.20;;
18296;SDS011;18066;52.106;5.534;2023-02-22T07:33:04;54.40;;;23.63;;
18296;SDS011;18066;52.106;5.534;2023-02-22T07:35:34;53.10;;;24.27;;
18296;SDS011;18066;52.106;5.534;2023-02-22T07:38:02;53.50;;;22.90;;
18296;SDS011;18066;52.106;5.534;2023-02-22T07:40:32;51.67;;;23.23;;
18296;SDS011;18066;52.106;5.534;2023-02-22T07:42:59;53.07;;;23.93;;
18296;SDS011;18066;52.106;5.534;2023-02-22T07:45:27;51.50;;;23.80;;
18296;SDS011;18066;52.106;5.534;2023-02-22T07:47:57;48.67;;;24.00;;
18296;SDS011;18066;52.106;5.534;2023-02-22T07:50:26;56.27;;;23.70;;
18296;SDS011;18066;52.106;5.534;2023-02-22T07:52:54;54.90;;;24.80;;
18296;SDS011;18066;52.106;5.534;2023-02-22T07:55:23;54.43;;;24.87;;
18296;SDS011;18066;52.106;5.534;2023-02-22T07:57:52;48.77;;;21.97;;
18296;SDS011;18066;52.106;5.534;2023-02-22T08:00:21;54.97;;;23.40;;
18296;SDS011;18066;52.106;5.534;2023-02-22T08:02:49;47.30;;;22.47;;
18296;SDS011;18066;52.106;5.534;2023-02-22T08:05:18;54.80;;;24.23;;
18296;SDS011;18066;52.106;5.534;2023-02-22T08:07:45;49.93;;;23.10;;
18296;SDS011;18066;52.106;5.534;2023-02-22T08:10:13;47.03;;;21.60;;
18296;SDS011;18066;52.106;5.534;2023-02-22T08:12:42;53.63;;;22.97;;
18296;SDS011;18066;52.106;5.534;2023-02-22T08:15:14;49.77;;;23.77;;
18296;SDS011;18066;52.106;5.534;2023-02-22T08:17:42;49.63;;;21.93;;
18296;SDS011;18066;52.106;5.534;2023-02-22T08:20:09;52.63;;;21.13;;
18296;SDS011;18066;52.106;5.534;2023-02-22T08:22:37;46.93;;;21.07;;
18296;SDS011;18066;52.106;5.534;2023-02-22T08:25:05;55.60;;;23.40;;
18296;SDS011;18066;52.106;5.534;2023-02-22T08:27:32;46.43;;;20.63;;
18296;SDS011;18066;52.106;5.534;2023-02-22T08:29:59;50.27;;;21.90;;
18296;SDS011;18066;52.106;5.534;2023-02-22T08:32:25;38.50;;;19.87;;
18296;SDS011;18066;52.106;5.534;2023-02-22T08:34:52;45.77;;;21.63;;
18296;SDS011;18066;52.106;5.534;2023-02-22T08:37:19;46.13;;;20.17;;
18296;SDS011;18066;52.106;5.534;2023-02-22T08:39:47;46.07;;;21.33;;
18296;SDS011;18066;52.106;5.534;2023-02-22T08:42:14;44.77;;;20.83;;
18296;SDS011;18066;52.106;5.534;2023-02-22T08:44:41;41.67;;;20.33;;
18296;SDS011;18066;52.106;5.534;2023-02-22T08:47:08;40.40;;;20.10;;
18296;SDS011;18066;52.106;5.534;2023-02-22T08:49:35;46.10;;;21.07;;
18296;SDS011;18066;52.106;5.534;2023-02-22T08:52:01;43.93;;;21.13;;
18296;SDS011;18066;52.106;5.534;2023-02-22T08:54:29;39.10;;;19.20;;
18296;SDS011;18066;52.106;5.534;2023-02-22T08:56:57;40.17;;;19.80;;
18296;SDS011;18066;52.106;5.534;2023-02-22T08:59:24;41.03;;;19.87;;
18296;SDS011;18066;52.106;5.534;2023-02-22T09:01:51;37.73;;;18.33;;
18296;SDS011;18066;52.106;5.534;2023-02-22T09:04:18;36.07;;;17.50;;
18296;SDS011;18066;52.106;5.534;2023-02-22T09:06:45;33.77;;;17.77;;
18296;SDS011;18066;52.106;5.534;2023-02-22T09:09:15;31.70;;;16.17;;
18296;SDS011;18066;52.106;5.534;2023-02-22T09:11:45;31.33;;;15.50;;
18296;SDS011;18066;52.106;5.534;2023-02-22T09:14:13;32.37;;;14.93;;
18296;SDS011;18066;52.106;5.534;2023-02-22T09:16:42;32.87;;;16.50;;
18296;SDS011;18066;52.106;5.534;2023-02-22T09:19:09;37.30;;;17.37;;
18296;SDS011;18066;52.106;5.534;2023-02-22T09:21:36;36.00;;;17.43;;
18296;SDS011;18066;52.106;5.534;2023-02-22T09:24:04;34.37;;;17.13;;
18296;SDS011;18066;52.106;5.534;2023-02-22T09:26:33;34.47;;;16.80;;
18296;SDS011;18066;52.106;5.534;2023-02-22T09:29:03;33.20;;;16.37;;
18296;SDS011;18066;52.106;5.534;2023-02-22T09:31:34;35.87;;;18.10;;
18296;SDS011;18066;52.106;5.534;2023-02-22T09:34:01;35.43;;;18.10;;
18296;SDS011;18066;52.106;5.534;2023-02-22T09:36:30;33.27;;;16.97;;
18296;SDS011;18066;52.106;5.534;2023-02-22T09:38:57;38.43;;;18.03;;
18296;SDS011;18066;52.106;5.534;2023-02-22T09:41:24;37.53;;;17.93;;
18296;SDS011;18066;52.106;5.534;2023-02-22T09:44:00;38.43;;;19.17;;
18296;SDS011;18066;52.106;5.534;2023-02-22T09:46:42;36.03;;;18.37;;
18296;SDS011;18066;52.106;5.534;2023-02-22T09:49:15;36.17;;;17.63;;
18296;SDS011;18066;52.106;5.534;2023-02-22T09:51:46;39.63;;;18.47;;
18296;SDS011;18066;52.106;5.534;2023-02-22T09:54:18;34.23;;;17.93;;
18296;SDS011;18066;52.106;5.534;2023-02-22T09:56:49;35.37;;;17.23;;
18296;SDS011;18066;52.106;5.534;2023-02-22T09:59:22;35.70;;;18.00;;
18296;SDS011;18066;52.106;5.534;2023-02-22T10:01:54;38.23;;;18.70;;
18296;SDS011;18066;52.106;5.534;2023-02-22T10:04:33;34.03;;;17.20;;
18296;SDS011;18066;52.106;5.534;2023-02-22T10:07:10;37.10;;;17.20;;
18296;SDS011;18066;52.106;5.534;2023-02-22T10:09:43;40.30;;;18.23;;
18296;SDS011;18066;52.106;5.534;2023-02-22T10:12:13;39.97;;;19.97;;
18296;SDS011;18066;52.106;5.534;2023-02-22T10:14:51;38.83;;;19.10;;
18296;SDS011;18066;52.106;5.534;2023-02-22T10:17:48;40.47;;;19.10;;
18296;SDS011;18066;52.106;5.534;2023-02-22T10:20:27;39.23;;;18.60;;
18296;SDS011;18066;52.106;5.534;2023-02-22T10:23:08;35.83;;;18.10;;
18296;SDS011;18066;52.106;5.534;2023-02-22T10:25:42;36.30;;;18.27;;
18296;SDS011;18066;52.106;5.534;2023-02-22T10:28:15;36.33;;;18.23;;
18296;SDS011;18066;52.106;5.534;2023-02-22T10:30:45;39.00;;;19.10;;
18296;SDS011;18066;52.106;5.534;2023-02-22T10:33:20;36.50;;;18.03;;
18296;SDS011;18066;52.106;5.534;2023-02-22T10:35:51;37.83;;;18.63;;
18296;SDS011;18066;52.106;5.534;2023-02-22T10:38:19;41.00;;;19.10;;
18296;SDS011;18066;52.106;5.534;2023-02-22T10:40:49;34.10;;;18.13;;
18296;SDS011;18066;52.106;5.534;2023-02-22T10:43:21;40.50;;;18.47;;
18296;SDS011;18066;52.106;5.534;2023-02-22T10:45:50;35.83;;;19.13;;
18296;SDS011;18066;52.106;5.534;2023-02-22T10:48:21;36.40;;;19.20;;
18296;SDS011;18066;52.106;5.534;2023-02-22T10:50:51;36.33;;;17.60;;
18296;SDS011;18066;52.106;5.534;2023-02-22T10:53:22;36.13;;;17.40;;
18296;SDS011;18066;52.106;5.534;2023-02-22T10:58:41;35.10;;;18.03;;
18296;SDS011;18066;52.106;5.534;2023-02-22T11:01:21;39.93;;;18.73;;
18296;SDS011;18066;52.106;5.534;2023-02-22T11:03:57;33.57;;;17.17;;
18296;SDS011;18066;52.106;5.534;2023-02-22T11:06:25;34.40;;;17.10;;
18296;SDS011;18066;52.106;5.534;2023-02-22T11:08:58;39.07;;;17.43;;
18296;SDS011;18066;52.106;5.534;2023-02-22T11:11:35;33.17;;;16.60;;
18296;SDS011;18066;52.106;5.534;2023-02-22T11:14:03;34.07;;;16.90;;
18296;SDS011;18066;52.106;5.534;2023-02-22T11:16:32;35.53;;;17.47;;
18296;SDS011;18066;52.106;5.534;2023-02-22T11:19:05;33.40;;;17.53;;
18296;SDS011;18066;52.106;5.534;2023-02-22T11:21:44;29.80;;;16.37;;
18296;SDS011;18066;52.106;5.534;2023-02-22T11:24:12;32.37;;;16.97;;
18296;SDS011;18066;52.106;5.534;2023-02-22T11:26:41;35.87;;;18.17;;
18296;SDS011;18066;52.106;5.534;2023-02-22T11:29:10;33.07;;;17.53;;
18296;SDS011;18066;52.106;5.534;2023-02-22T11:31:43;33.43;;;17.73;;
18296;SDS011;18066;52.106;5.534;2023-02-22T11:34:25;31.70;;;16.30;;
18296;SDS011;18066;52.106;5.534;2023-02-22T11:36:55;33.07;;;17.20;;
18296;SDS011;18066;52.106;5.534;2023-02-22T11:39:24;38.63;;;18.43;;
18296;SDS011;18066;52.106;5.534;2023-02-22T11:41:52;36.13;;;18.20;;
18296;SDS011;18066;52.106;5.534;2023-02-22T11:44:21;35.40;;;18.07;;
18296;SDS011;18066;52.106;5.534;2023-02-22T11:46:51;34.73;;;17.33;;
18296;SDS011;18066;52.106;5.534;2023-02-22T11:49:20;32.10;;;17.17;;
18296;SDS011;18066;52.106;5.534;2023-02-22T11:51:55;36.57;;;17.07;;
18296;SDS011;18066;52.106;5.534;2023-02-22T11:54:38;34.13;;;17.20;;
18296;SDS011;18066;52.106;5.534;2023-02-22T11:57:19;36.30;;;16.97;;
18296;SDS011;18066;52.106;5.534;2023-02-22T12:00:00;38.93;;;17.87;;
18296;SDS011;18066;52.106;5.534;2023-02-22T12:02:42;32.73;;;17.40;;
18296;SDS011;18066;52.106;5.534;2023-02-22T12:05:22;36.40;;;17.60;;
18296;SDS011;18066;52.106;5.534;2023-02-22T12:08:05;34.00;;;16.50;;
18296;SDS011;18066;52.106;5.534;2023-02-22T12:10:42;30.00;;;16.27;;
18296;SDS011;18066;52.106;5.534;2023-02-22T12:13:25;36.87;;;18.53;;
18296;SDS011;18066;52.106;5.534;2023-02-22T12:16:04;32.00;;;16.77;;
18296;SDS011;18066;52.106;5.534;2023-02-22T12:18:42;30.07;;;15.67;;
18296;SDS011;18066;52.106;5.534;2023-02-22T12:21:24;33.90;;;16.03;;
18296;SDS011;18066;52.106;5.534;2023-02-22T12:23:55;34.83;;;15.93;;
18296;SDS011;18066;52.106;5.534;2023-02-22T12:26:28;32.67;;;15.53;;
18296;SDS011;18066;52.106;5.534;2023-02-22T12:29:00;35.27;;;16.27;;
18296;SDS011;18066;52.106;5.534;2023-02-22T12:31:31;31.37;;;16.47;;
18296;SDS011;18066;52.106;5.534;2023-02-22T12:34:03;29.47;;;15.03;;
18296;SDS011;18066;52.106;5.534;2023-02-22T12:36:37;31.13;;;15.13;;
18296;SDS011;18066;52.106;5.534;2023-02-22T12:39:19;29.30;;;15.40;;
18296;SDS011;18066;52.106;5.534;2023-02-22T12:41:53;34.20;;;16.27;;
18296;SDS011;18066;52.106;5.534;2023-02-22T12:44:22;31.97;;;15.47;;
18296;SDS011;18066;52.106;5.534;2023-02-22T12:46:54;31.80;;;16.30;;
18296;SDS011;18066;52.106;5.534;2023-02-22T12:49:25;31.30;;;15.77;;
18296;SDS011;18066;52.106;5.534;2023-02-22T12:51:59;35.40;;;16.10;;
18296;SDS011;18066;52.106;5.534;2023-02-22T12:54:39;31.00;;;15.43;;
18296;SDS011;18066;52.106;5.534;2023-02-22T12:57:14;32.60;;;15.17;;
18296;SDS011;18066;52.106;5.534;2023-02-22T12:59:47;31.57;;;16.23;;
18296;SDS011;18066;52.106;5.534;2023-02-22T13:02:19;31.80;;;15.50;;
18296;SDS011;18066;52.106;5.534;2023-02-22T13:04:52;31.67;;;16.43;;
18296;SDS011;18066;52.106;5.534;2023-02-22T13:07:23;33.50;;;17.57;;
18296;SDS011;18066;52.106;5.534;2023-02-22T13:12:51;27.03;;;15.40;;
18296;SDS011;18066;52.106;5.534;2023-02-22T13:15:24;30.33;;;15.67;;
18296;SDS011;18066;52.106;5.534;2023-02-22T13:17:57;30.33;;;16.07;;
18296;SDS011;18066;52.106;5.534;2023-02-22T13:20:31;32.60;;;16.27;;
18296;SDS011;18066;52.106;5.534;2023-02-22T13:23:04;29.87;;;16.67;;
18296;SDS011;18066;52.106;5.534;2023-02-22T13:25:43;30.23;;;15.87;;
18296;SDS011;18066;52.106;5.534;2023-02-22T13:28:21;32.43;;;16.90;;
18296;SDS011;18066;52.106;5.534;2023-02-22T13:31:00;30.07;;;15.83;;
18296;SDS011;18066;52.106;5.534;2023-02-22T13:33:40;31.67;;;17.10;;
18296;SDS011;18066;52.106;5.534;2023-02-22T13:36:24;29.20;;;16.13;;
18296;SDS011;18066;52.106;5.534;2023-02-22T13:39:17;30.80;;;15.53;;
18296;SDS011;18066;52.106;5.534;2023-02-22T13:42:05;29.77;;;14.63;;
18296;SDS011;18066;52.106;5.534;2023-02-22T13:48:08;27.40;;;15.03;;
18296;SDS011;18066;52.106;5.534;2023-02-22T13:53:37;29.60;;;16.17;;
18296;SDS011;18066;52.106;5.534;2023-02-22T13:56:09;30.43;;;17.00;;
18296;SDS011;18066;52.106;5.534;2023-02-22T13:58:49;31.77;;;16.77;;
18296;SDS011;18066;52.106;5.534;2023-02-22T14:01:35;30.13;;;16.23;;
18296;SDS011;18066;52.106;5.534;2023-02-22T14:07:01;33.93;;;16.70;;
18296;SDS011;18066;52.106;5.534;2023-02-22T14:09:42;31.30;;;16.40;;
18296;SDS011;18066;52.106;5.534;2023-02-22T14:15:14;26.73;;;14.80;;
18296;SDS011;18066;52.106;5.534;2023-02-22T14:17:42;27.23;;;14.43;;
18296;SDS011;18066;52.106;5.534;2023-02-22T14:20:18;25.53;;;14.47;;
18296;SDS011;18066;52.106;5.534;2023-02-22T14:22:54;25.37;;;13.63;;
18296;SDS011;18066;52.106;5.534;2023-02-22T14:25:31;25.03;;;13.77;;
18296;SDS011;18066;52.106;5.534;2023-02-22T14:28:01;25.83;;;14.23;;
18296;SDS011;18066;52.106;5.534;2023-02-22T14:30:31;24.83;;;14.53;;
18296;SDS011;18066;52.106;5.534;2023-02-22T14:32:59;27.50;;;15.37;;
18296;SDS011;18066;52.106;5.534;2023-02-22T14:35:29;24.07;;;14.30;;
18296;SDS011;18066;52.106;5.534;2023-02-22T14:38:02;28.60;;;14.50;;
18296;SDS011;18066;52.106;5.534;2023-02-22T14:40:32;29.47;;;14.73;;
18296;SDS011;18066;52.106;5.534;2023-02-22T14:43:02;26.40;;;15.17;;
18296;SDS011;18066;52.106;5.534;2023-02-22T14:45:38;26.13;;;14.93;;
18296;SDS011;18066;52.106;5.534;2023-02-22T14:48:12;24.13;;;13.83;;
18296;SDS011;18066;52.106;5.534;2023-02-22T14:50:49;24.00;;;13.67;;
18296;SDS011;18066;52.106;5.534;2023-02-22T14:53:21;25.07;;;14.30;;
18296;SDS011;18066;52.106;5.534;2023-02-22T14:55:51;22.53;;;13.47;;
18296;SDS011;18066;52.106;5.534;2023-02-22T14:58:23;22.83;;;13.93;;
18296;SDS011;18066;52.106;5.534;2023-02-22T15:00:56;26.10;;;14.67;;